sensor_id;sensor_type;location;lat;lon;timestamp;P1;durP1;ratioP1;P2;durP2;ratioP2
76989;SDS011;65924;47.250;11.332;2023-09-19T00:07:15;5.60;;;1.30;;
76989;SDS011;65924;47.250;11.332;2023-09-19T00:17:17;3.00;;;1.20;;
76989;SDS011;65924;47.250;11.332;2023-09-19T00:27:17;3.20;;;1.00;;
76989;SDS011;65924;47.250;11.332;2023-09-19T00:37:18;4.30;;;1.10;;
76989;SDS011;65924;47.250;11.332;2023-09-19T00:47:19;3.50;;;1.50;;
76989;SDS011;65924;47.250;11.332;2023-09-19T00:57:20;5.20;;;1.90;;
76989;SDS011;65924;47.250;11.332;2023-09-19T01:07:22;4.70;;;1.40;;
76989;SDS011;65924;47.250;11.332;2023-09-19T01:17:27;4.50;;;1.30;;
76989;SDS011;65924;47.250;11.332;2023-09-19T01:38:01;4.00;;;1.60;;
76989;SDS011;65924;47.250;11.332;2023-09-19T01:48:29;4.50;;;1.40;;
76989;SDS011;65924;47.250;11.332;2023-09-19T01:58:48;4.70;;;1.90;;
76989;SDS011;65924;47.250;11.332;2023-09-19T02:08:51;3.60;;;1.60;;
76989;SDS011;65924;47.250;11.332;2023-09-19T02:18:51;5.40;;;1.70;;
76989;SDS011;65924;47.250;11.332;2023-09-19T02:28:52;5.30;;;1.20;;
76989;SDS011;65924;47.250;11.332;2023-09-19T02:38:53;3.70;;;1.30;;
76989;SDS011;65924;47.250;11.332;2023-09-19T02:48:54;7.90;;;1.70;;
76989;SDS011;65924;47.250;11.332;2023-09-19T02:58:55;5.30;;;1.80;;
76989;SDS011;65924;47.250;11.332;2023-09-19T03:08:56;6.60;;;1.70;;
76989;SDS011;65924;47.250;11.332;2023-09-19T03:18:57;4.90;;;1.90;;
76989;SDS011;65924;47.250;11.332;2023-09-19T03:29:03;4.10;;;1.90;;
76989;SDS011;65924;47.250;11.332;2023-09-19T03:39:08;4.60;;;1.90;;
76989;SDS011;65924;47.250;11.332;2023-09-19T03:49:09;5.20;;;2.10;;
76989;SDS011;65924;47.250;11.332;2023-09-19T03:59:10;5.10;;;2.00;;
76989;SDS011;65924;47.250;11.332;2023-09-19T04:09:12;7.70;;;2.30;;
76989;SDS011;65924;47.250;11.332;2023-09-19T04:19:13;5.20;;;2.30;;
76989;SDS011;65924;47.250;11.332;2023-09-19T04:29:14;5.50;;;2.20;;
76989;SDS011;65924;47.250;11.332;2023-09-19T04:39:15;4.10;;;2.00;;
76989;SDS011;65924;47.250;11.332;2023-09-19T04:49:17;3.30;;;1.50;;
76989;SDS011;65924;47.250;11.332;2023-09-19T04:59:22;4.30;;;2.10;;
76989;SDS011;65924;47.250;11.332;2023-09-19T05:09:24;4.40;;;1.70;;
76989;SDS011;65924;47.250;11.332;2023-09-19T05:19:25;3.90;;;1.70;;
76989;SDS011;65924;47.250;11.332;2023-09-19T05:29:25;6.20;;;1.80;;
76989;SDS011;65924;47.250;11.332;2023-09-19T05:39:26;4.80;;;2.00;;
76989;SDS011;65924;47.250;11.332;2023-09-19T05:49:27;4.80;;;1.70;;
76989;SDS011;65924;47.250;11.332;2023-09-19T05:59:27;4.80;;;1.90;;
76989;SDS011;65924;47.250;11.332;2023-09-19T06:09:28;3.40;;;1.20;;
76989;SDS011;65924;47.250;11.332;2023-09-19T06:19:29;4.80;;;1.60;;
76989;SDS011;65924;47.250;11.332;2023-09-19T06:29:30;5.70;;;1.60;;
76989;SDS011;65924;47.250;11.332;2023-09-19T06:39:31;3.50;;;1.60;;
76989;SDS011;65924;47.250;11.332;2023-09-19T06:49:32;4.20;;;1.60;;
76989;SDS011;65924;47.250;11.332;2023-09-19T06:59:32;4.20;;;1.40;;
76989;SDS011;65924;47.250;11.332;2023-09-19T07:09:33;7.20;;;2.40;;
76989;SDS011;65924;47.250;11.332;2023-09-19T07:19:33;5.60;;;2.00;;
76989;SDS011;65924;47.250;11.332;2023-09-19T07:29:34;4.80;;;1.90;;
76989;SDS011;65924;47.250;11.332;2023-09-19T07:39:34;3.90;;;1.40;;
76989;SDS011;65924;47.250;11.332;2023-09-19T07:49:35;4.50;;;1.40;;
76989;SDS011;65924;47.250;11.332;2023-09-19T07:59:36;2.90;;;1.20;;
76989;SDS011;65924;47.250;11.332;2023-09-19T08:09:36;5.70;;;1.70;;
76989;SDS011;65924;47.250;11.332;2023-09-19T08:19:39;4.20;;;1.60;;
76989;SDS011;65924;47.250;11.332;2023-09-19T08:29:42;3.40;;;1.10;;
76989;SDS011;65924;47.250;11.332;2023-09-19T08:39:42;3.30;;;0.90;;
76989;SDS011;65924;47.250;11.332;2023-09-19T09:00:04;4.40;;;1.40;;
76989;SDS011;65924;47.250;11.332;2023-09-19T09:10:15;4.40;;;1.30;;
76989;SDS011;65924;47.250;11.332;2023-09-19T09:20:16;3.00;;;1.20;;
76989;SDS011;65924;47.250;11.332;2023-09-19T09:30:37;3.80;;;1.30;;
76989;SDS011;65924;47.250;11.332;2023-09-19T09:41:00;3.20;;;1.00;;
76989;SDS011;65924;47.250;11.332;2023-09-19T09:51:07;5.10;;;1.40;;
76989;SDS011;65924;47.250;11.332;2023-09-19T10:01:08;4.20;;;1.40;;
76989;SDS011;65924;47.250;11.332;2023-09-19T10:11:15;3.20;;;1.00;;
76989;SDS011;65924;47.250;11.332;2023-09-19T10:21:16;3.40;;;1.20;;
76989;SDS011;65924;47.250;11.332;2023-09-19T10:31:22;2.80;;;0.80;;
76989;SDS011;65924;47.250;11.332;2023-09-19T10:41:25;3.10;;;1.10;;
76989;SDS011;65924;47.250;11.332;2023-09-19T10:51:32;3.20;;;1.20;;
76989;SDS011;65924;47.250;11.332;2023-09-19T11:01:41;3.00;;;0.80;;
76989;SDS011;65924;47.250;11.332;2023-09-19T11:11:43;3.30;;;1.30;;
76989;SDS011;65924;47.250;11.332;2023-09-19T11:21:53;2.90;;;1.00;;
76989;SDS011;65924;47.250;11.332;2023-09-19T11:31:55;4.20;;;1.20;;
76989;SDS011;65924;47.250;11.332;2023-09-19T11:41:56;3.20;;;0.90;;
76989;SDS011;65924;47.250;11.332;2023-09-19T11:52:00;3.50;;;1.20;;
76989;SDS011;65924;47.250;11.332;2023-09-19T12:02:05;4.90;;;1.20;;
76989;SDS011;65924;47.250;11.332;2023-09-19T12:12:08;3.80;;;1.20;;
76989;SDS011;65924;47.250;11.332;2023-09-19T12:22:09;3.30;;;1.00;;
76989;SDS011;65924;47.250;11.332;2023-09-19T12:32:10;3.50;;;1.00;;
76989;SDS011;65924;47.250;11.332;2023-09-19T12:42:11;6.40;;;0.90;;
76989;SDS011;65924;47.250;11.332;2023-09-19T12:52:15;4.40;;;1.20;;
76989;SDS011;65924;47.250;11.332;2023-09-19T13:02:15;3.20;;;1.10;;
76989;SDS011;65924;47.250;11.332;2023-09-19T13:12:35;3.30;;;0.90;;
76989;SDS011;65924;47.250;11.332;2023-09-19T13:32:39;4.00;;;1.10;;
76989;SDS011;65924;47.250;11.332;2023-09-19T13:42:41;2.70;;;0.90;;
76989;SDS011;65924;47.250;11.332;2023-09-19T13:52:42;3.00;;;1.00;;
76989;SDS011;65924;47.250;11.332;2023-09-19T14:02:43;2.40;;;0.70;;
76989;SDS011;65924;47.250;11.332;2023-09-19T14:12:46;2.60;;;0.70;;
76989;SDS011;65924;47.250;11.332;2023-09-19T14:22:46;3.00;;;0.80;;
76989;SDS011;65924;47.250;11.332;2023-09-19T14:32:48;1.90;;;0.70;;
76989;SDS011;65924;47.250;11.332;2023-09-19T14:42:48;2.20;;;0.80;;
76989;SDS011;65924;47.250;11.332;2023-09-19T14:52:49;3.40;;;0.90;;
76989;SDS011;65924;47.250;11.332;2023-09-19T15:02:51;5.00;;;1.20;;
76989;SDS011;65924;47.250;11.332;2023-09-19T15:12:52;4.80;;;1.10;;
76989;SDS011;65924;47.250;11.332;2023-09-19T15:22:53;2.50;;;0.80;;
76989;SDS011;65924;47.250;11.332;2023-09-19T15:32:54;2.60;;;0.70;;
76989;SDS011;65924;47.250;11.332;2023-09-19T15:42:55;3.60;;;0.70;;
76989;SDS011;65924;47.250;11.332;2023-09-19T15:53:00;2.30;;;0.90;;
76989;SDS011;65924;47.250;11.332;2023-09-19T16:03:01;4.30;;;1.00;;
76989;SDS011;65924;47.250;11.332;2023-09-19T16:13:03;3.00;;;0.80;;
76989;SDS011;65924;47.250;11.332;2023-09-19T16:23:08;2.70;;;0.80;;
76989;SDS011;65924;47.250;11.332;2023-09-19T16:33:10;3.40;;;0.90;;
76989;SDS011;65924;47.250;11.332;2023-09-19T16:43:12;3.30;;;0.90;;
76989;SDS011;65924;47.250;11.332;2023-09-19T16:53:13;2.70;;;1.10;;
76989;SDS011;65924;47.250;11.332;2023-09-19T17:03:17;2.80;;;1.00;;
76989;SDS011;65924;47.250;11.332;2023-09-19T17:13:19;3.80;;;1.10;;
76989;SDS011;65924;47.250;11.332;2023-09-19T17:23:21;3.20;;;0.70;;
76989;SDS011;65924;47.250;11.332;2023-09-19T17:33:26;3.30;;;1.10;;
76989;SDS011;65924;47.250;11.332;2023-09-19T17:43:28;3.80;;;0.90;;
76989;SDS011;65924;47.250;11.332;2023-09-19T17:53:32;3.30;;;0.80;;
76989;SDS011;65924;47.250;11.332;2023-09-19T18:03:39;4.10;;;1.00;;
76989;SDS011;65924;47.250;11.332;2023-09-19T18:13:42;3.20;;;0.70;;
76989;SDS011;65924;47.250;11.332;2023-09-19T18:23:54;3.10;;;1.00;;
76989;SDS011;65924;47.250;11.332;2023-09-19T18:33:57;2.20;;;0.80;;
76989;SDS011;65924;47.250;11.332;2023-09-19T18:43:59;3.00;;;0.80;;
76989;SDS011;65924;47.250;11.332;2023-09-19T18:54:02;4.30;;;1.20;;
76989;SDS011;65924;47.250;11.332;2023-09-19T19:04:06;2.30;;;0.70;;
76989;SDS011;65924;47.250;11.332;2023-09-19T19:14:07;2.80;;;0.90;;
76989;SDS011;65924;47.250;11.332;2023-09-19T19:24:09;4.70;;;0.80;;
76989;SDS011;65924;47.250;11.332;2023-09-19T19:34:13;4.20;;;0.90;;
76989;SDS011;65924;47.250;11.332;2023-09-19T19:44:14;4.00;;;1.00;;
76989;SDS011;65924;47.250;11.332;2023-09-19T19:54:16;3.10;;;0.80;;
76989;SDS011;65924;47.250;11.332;2023-09-19T20:04:17;2.60;;;0.90;;
76989;SDS011;65924;47.250;11.332;2023-09-19T20:14:19;2.60;;;0.80;;
76989;SDS011;65924;47.250;11.332;2023-09-19T20:24:20;2.60;;;0.90;;
76989;SDS011;65924;47.250;11.332;2023-09-19T20:34:23;3.50;;;0.90;;
76989;SDS011;65924;47.250;11.332;2023-09-19T20:44:26;5.50;;;1.00;;
76989;SDS011;65924;47.250;11.332;2023-09-19T20:54:29;4.30;;;1.10;;
76989;SDS011;65924;47.250;11.332;2023-09-19T21:04:31;3.70;;;0.90;;
76989;SDS011;65924;47.250;11.332;2023-09-19T21:14:32;3.50;;;1.10;;
76989;SDS011;65924;47.250;11.332;2023-09-19T21:24:33;4.60;;;2.40;;
76989;SDS011;65924;47.250;11.332;2023-09-19T21:34:37;2.90;;;0.90;;
76989;SDS011;65924;47.250;11.332;2023-09-19T21:44:38;2.90;;;0.90;;
76989;SDS011;65924;47.250;11.332;2023-09-19T21:54:38;6.60;;;1.00;;
76989;SDS011;65924;47.250;11.332;2023-09-19T22:04:39;2.80;;;0.80;;
76989;SDS011;65924;47.250;11.332;2023-09-19T22:14:40;6.50;;;1.10;;
76989;SDS011;65924;47.250;11.332;2023-09-19T22:24:41;3.90;;;0.90;;
76989;SDS011;65924;47.250;11.332;2023-09-19T22:34:42;3.10;;;1.00;;
76989;SDS011;65924;47.250;11.332;2023-09-19T22:44:42;3.50;;;0.90;;
76989;SDS011;65924;47.250;11.332;2023-09-19T22:54:45;5.70;;;1.00;;
76989;SDS011;65924;47.250;11.332;2023-09-19T23:04:46;4.30;;;1.30;;
76989;SDS011;65924;47.250;11.332;2023-09-19T23:14:46;3.40;;;1.10;;
76989;SDS011;65924;47.250;11.332;2023-09-19T23:24:47;3.60;;;1.30;;
76989;SDS011;65924;47.250;11.332;2023-09-19T23:34:52;4.20;;;0.90;;
76989;SDS011;65924;47.250;11.332;2023-09-19T23:44:53;7.10;;;1.00;;
76989;SDS011;65924;47.250;11.332;2023-09-19T23:54:55;3.90;;;1.10;;
